AAL1936 KEWR-KORD
Flight info
| Callsign | AAL1936 |
|---|---|
| Flight time | 1h 37m |
| Altitude | 36000 |
| Route | COATE Q436 DGRAF Q436 KAYYS WYNDE3 |
| Aircraft | B738/M-DGVW/C |
Departure
| Time | 2026-04-22 23:49 |
|---|---|
| Airport | Newark Liberty International Airport (KEWR) |
Arrival
| Time | 2026-04-23 01:26 |
|---|---|
| Airport | Chicago O'Hare International Airport (KORD) |
| Time | Latitude | Longitude | Altitude | Speed | Heading |
|---|---|---|---|---|---|
| 2026-04-22 23:39 | 40.68753 | -74.18494 | 28 ft | 0 kts | 238° |
| 2026-04-22 23:41 | 40.68755 | -74.18489 | 28 ft | 2 kts | 238° |
| 2026-04-22 23:41 | 40.68763 | -74.18470 | 28 ft | 3 kts | 251° |
| 2026-04-22 23:42 | 40.68766 | -74.18444 | 28 ft | 3 kts | 270° |
| 2026-04-22 23:42 | 40.68766 | -74.18441 | 28 ft | 0 kts | 272° |
| 2026-04-22 23:42 | 40.68775 | -74.18479 | 28 ft | 17 kts | 301° |
| 2026-04-22 23:42 | 40.68787 | -74.18637 | 28 ft | 13 kts | 243° |
| 2026-04-22 23:43 | 40.68713 | -74.18697 | 28 ft | 13 kts | 186° |
| 2026-04-22 23:43 | 40.68623 | -74.18704 | 28 ft | 14 kts | 181° |
| 2026-04-22 23:43 | 40.68533 | -74.18679 | 28 ft | 13 kts | 143° |
| 2026-04-22 23:43 | 40.68473 | -74.18588 | 28 ft | 13 kts | 128° |
| 2026-04-22 23:44 | 40.68423 | -74.18485 | 28 ft | 13 kts | 118° |
| 2026-04-22 23:44 | 40.68380 | -74.18375 | 28 ft | 14 kts | 114° |
| 2026-04-22 23:44 | 40.68352 | -74.18257 | 28 ft | 14 kts | 100° |
| 2026-04-22 23:44 | 40.68343 | -74.18092 | 28 ft | 22 kts | 88° |
| 2026-04-22 23:45 | 40.68382 | -74.17871 | 28 ft | 28 kts | 65° |
| 2026-04-22 23:45 | 40.68504 | -74.17643 | 28 ft | 33 kts | 43° |
| 2026-04-22 23:45 | 40.68710 | -74.17477 | 28 ft | 37 kts | 26° |
| 2026-04-22 23:45 | 40.68869 | -74.17375 | 28 ft | 38 kts | 26° |
| 2026-04-22 23:46 | 40.69075 | -74.17243 | 28 ft | 39 kts | 26° |
| 2026-04-22 23:46 | 40.69286 | -74.17112 | 28 ft | 28 kts | 25° |
| 2026-04-22 23:46 | 40.69452 | -74.17007 | 28 ft | 26 kts | 26° |
| 2026-04-22 23:46 | 40.69605 | -74.16910 | 28 ft | 23 kts | 26° |
| 2026-04-22 23:47 | 40.69745 | -74.16819 | 28 ft | 21 kts | 30° |
| 2026-04-22 23:47 | 40.69820 | -74.16684 | 28 ft | 17 kts | 49° |
| 2026-04-22 23:47 | 40.69918 | -74.16587 | 28 ft | 18 kts | 29° |
| 2026-04-22 23:47 | 40.70026 | -74.16517 | 28 ft | 12 kts | 25° |
| 2026-04-22 23:48 | 40.70060 | -74.16416 | 28 ft | 15 kts | 114° |
| 2026-04-22 23:48 | 40.69974 | -74.16396 | 28 ft | 16 kts | 212° |
| 2026-04-22 23:48 | 40.69779 | -74.16522 | 28 ft | 55 kts | 205° |
| 2026-04-22 23:48 | 40.69202 | -74.16889 | 28 ft | 130 kts | 206° |
| 2026-04-22 23:49 | 40.68157 | -74.17552 | 32 ft | 202 kts | 205° |
| 2026-04-22 23:49 | 40.66860 | -74.18365 | 1118 ft | 199 kts | 204° |
| 2026-04-22 23:49 | 40.65537 | -74.18846 | 2184 ft | 206 kts | 188° |
| 2026-04-22 23:49 | 40.64049 | -74.18976 | 3201 ft | 220 kts | 188° |
| 2026-04-22 23:50 | 40.62681 | -74.19874 | 4142 ft | 230 kts | 220° |
| 2026-04-22 23:50 | 40.61861 | -74.21684 | 5134 ft | 236 kts | 252° |
| 2026-04-22 23:50 | 40.61896 | -74.23852 | 6135 ft | 247 kts | 284° |
| 2026-04-22 23:50 | 40.62824 | -74.25829 | 7150 ft | 267 kts | 314° |
| 2026-04-22 23:51 | 40.64434 | -74.27181 | 8194 ft | 286 kts | 333° |
| 2026-04-22 23:51 | 40.66362 | -74.28154 | 9205 ft | 307 kts | 341° |
| 2026-04-22 23:51 | 40.68472 | -74.28988 | 10203 ft | 326 kts | 344° |
| 2026-04-22 23:51 | 40.70733 | -74.29800 | 11199 ft | 345 kts | 345° |
| 2026-04-22 23:52 | 40.73099 | -74.30638 | 12187 ft | 361 kts | 345° |
| 2026-04-22 23:52 | 40.75555 | -74.31591 | 13174 ft | 375 kts | 342° |
| 2026-04-22 23:52 | 40.78044 | -74.32781 | 14158 ft | 386 kts | 338° |
| 2026-04-22 23:52 | 40.80535 | -74.34249 | 15144 ft | 396 kts | 334° |
| 2026-04-22 23:53 | 40.82962 | -74.35952 | 16115 ft | 403 kts | 330° |
| 2026-04-22 23:53 | 40.85406 | -74.37923 | 17109 ft | 409 kts | 327° |
| 2026-04-22 23:53 | 40.87766 | -74.40044 | 18087 ft | 412 kts | 324° |
| 2026-04-22 23:53 | 40.90052 | -74.42276 | 19054 ft | 414 kts | 323° |
| 2026-04-22 23:54 | 40.92324 | -74.44636 | 20032 ft | 415 kts | 321° |
| 2026-04-22 23:54 | 40.94547 | -74.47054 | 21005 ft | 414 kts | 320° |
| 2026-04-22 23:54 | 40.96745 | -74.49526 | 21896 ft | 415 kts | 319° |
| 2026-04-22 23:54 | 40.98934 | -74.52045 | 22485 ft | 423 kts | 319° |
| 2026-04-22 23:55 | 41.01178 | -74.54668 | 22755 ft | 437 kts | 318° |
| 2026-04-22 23:55 | 41.03479 | -74.57387 | 23139 ft | 447 kts | 318° |
| 2026-04-22 23:55 | 41.05813 | -74.60164 | 23623 ft | 453 kts | 318° |
| 2026-04-22 23:55 | 41.08166 | -74.62974 | 24122 ft | 458 kts | 318° |
| 2026-04-22 23:56 | 41.10541 | -74.65822 | 24625 ft | 461 kts | 317° |
| 2026-04-22 23:56 | 41.12775 | -74.68893 | 25125 ft | 464 kts | 311° |
| 2026-04-22 23:56 | 41.14788 | -74.72253 | 25628 ft | 466 kts | 307° |
| 2026-04-22 23:56 | 41.16637 | -74.75778 | 26128 ft | 468 kts | 303° |
| 2026-04-22 23:57 | 41.18387 | -74.79437 | 26631 ft | 469 kts | 301° |
| 2026-04-22 23:57 | 41.20061 | -74.83157 | 27111 ft | 470 kts | 300° |
| 2026-04-22 23:57 | 41.21675 | -74.86883 | 27502 ft | 472 kts | 300° |
| 2026-04-22 23:57 | 41.23290 | -74.90696 | 27795 ft | 477 kts | 299° |
| 2026-04-22 23:58 | 41.24914 | -74.94573 | 28056 ft | 481 kts | 299° |
| 2026-04-22 23:58 | 41.26545 | -74.98486 | 28309 ft | 485 kts | 299° |
| 2026-04-22 23:58 | 41.28185 | -75.02420 | 28561 ft | 489 kts | 299° |
| 2026-04-22 23:58 | 41.29843 | -75.06390 | 28814 ft | 492 kts | 299° |
| 2026-04-22 23:59 | 41.31508 | -75.10364 | 29143 ft | 492 kts | 299° |
| 2026-04-22 23:59 | 41.33182 | -75.14346 | 29510 ft | 492 kts | 299° |
| 2026-04-22 23:59 | 41.34855 | -75.18311 | 29884 ft | 491 kts | 299° |
| 2026-04-22 23:59 | 41.36534 | -75.22279 | 30259 ft | 490 kts | 299° |
| 2026-04-23 00:00 | 41.39875 | -75.30150 | 31006 ft | 488 kts | 299° |
| 2026-04-23 00:00 | 41.40982 | -75.32752 | 31245 ft | 487 kts | 299° |
| 2026-04-23 00:00 | 41.43221 | -75.38011 | 31615 ft | 488 kts | 300° |
| 2026-04-23 00:01 | 41.44896 | -75.41944 | 31851 ft | 489 kts | 300° |
| 2026-04-23 00:01 | 41.46535 | -75.45948 | 32006 ft | 492 kts | 297° |
| 2026-04-23 00:01 | 41.48033 | -75.50063 | 32137 ft | 495 kts | 295° |
| 2026-04-23 00:01 | 41.49413 | -75.54216 | 32263 ft | 497 kts | 293° |
| 2026-04-23 00:02 | 41.50741 | -75.58481 | 32389 ft | 499 kts | 292° |
| 2026-04-23 00:02 | 41.52022 | -75.62791 | 32515 ft | 500 kts | 291° |
| 2026-04-23 00:02 | 41.53273 | -75.67133 | 32641 ft | 501 kts | 291° |
| 2026-04-23 00:02 | 41.54502 | -75.71482 | 32766 ft | 502 kts | 290° |
| 2026-04-23 00:03 | 41.55727 | -75.75871 | 32892 ft | 503 kts | 290° |
| 2026-04-23 00:03 | 41.56945 | -75.80263 | 33017 ft | 504 kts | 290° |
| 2026-04-23 00:03 | 41.58164 | -75.84664 | 33169 ft | 505 kts | 290° |
| 2026-04-23 00:03 | 41.59378 | -75.89050 | 33378 ft | 503 kts | 290° |
| 2026-04-23 00:04 | 41.60592 | -75.93432 | 33600 ft | 502 kts | 290° |
| 2026-04-23 00:04 | 41.61804 | -75.97799 | 33778 ft | 502 kts | 290° |
| 2026-04-23 00:04 | 41.63020 | -76.02172 | 33904 ft | 502 kts | 290° |
| 2026-04-23 00:04 | 41.64244 | -76.06563 | 34026 ft | 503 kts | 290° |
| 2026-04-23 00:05 | 41.65467 | -76.10947 | 34151 ft | 503 kts | 290° |
| 2026-04-23 00:05 | 41.66696 | -76.15344 | 34276 ft | 503 kts | 290° |
| 2026-04-23 00:05 | 41.67864 | -76.19697 | 34399 ft | 503 kts | 288° |
| 2026-04-23 00:05 | 41.68918 | -76.24162 | 34525 ft | 503 kts | 287° |
| 2026-04-23 00:06 | 41.69881 | -76.28664 | 34650 ft | 503 kts | 285° |
| 2026-04-23 00:06 | 41.70784 | -76.33194 | 34775 ft | 503 kts | 284° |
| 2026-04-23 00:06 | 41.71648 | -76.37736 | 34900 ft | 503 kts | 284° |
| 2026-04-23 00:06 | 41.72486 | -76.42281 | 35025 ft | 503 kts | 283° |
| 2026-04-23 00:07 | 41.73306 | -76.46829 | 35150 ft | 503 kts | 283° |
| 2026-04-23 00:07 | 41.74118 | -76.51382 | 35275 ft | 502 kts | 283° |
| 2026-04-23 00:07 | 41.74925 | -76.55950 | 35400 ft | 502 kts | 283° |
| 2026-04-23 00:07 | 41.75726 | -76.60500 | 35525 ft | 502 kts | 283° |
| 2026-04-23 00:08 | 41.76523 | -76.65046 | 35649 ft | 501 kts | 283° |
| 2026-04-23 00:08 | 41.77320 | -76.69591 | 35774 ft | 501 kts | 283° |
| 2026-04-23 00:08 | 41.78114 | -76.74132 | 35899 ft | 500 kts | 283° |
| 2026-04-23 00:08 | 41.78907 | -76.78667 | 36023 ft | 500 kts | 283° |
| 2026-04-23 00:09 | 41.79700 | -76.83205 | 36142 ft | 500 kts | 283° |
| 2026-04-23 00:09 | 41.81019 | -76.90762 | 36216 ft | 500 kts | 283° |
| 2026-04-23 00:10 | 41.82588 | -76.99766 | 36218 ft | 493 kts | 283° |
| 2026-04-23 00:10 | 41.84139 | -77.08687 | 36219 ft | 489 kts | 283° |
| 2026-04-23 00:11 | 41.85668 | -77.17517 | 36224 ft | 489 kts | 283° |
| 2026-04-23 00:11 | 41.87202 | -77.26401 | 36227 ft | 488 kts | 283° |
| 2026-04-23 00:12 | 41.88726 | -77.35265 | 36230 ft | 487 kts | 283° |
| 2026-04-23 00:12 | 41.90242 | -77.44121 | 36238 ft | 486 kts | 283° |
| 2026-04-23 00:13 | 41.91750 | -77.52965 | 36243 ft | 486 kts | 283° |
| 2026-04-23 00:13 | 41.93252 | -77.61820 | 36250 ft | 485 kts | 283° |
| 2026-04-23 00:14 | 41.94747 | -77.70668 | 36261 ft | 485 kts | 283° |
| 2026-04-23 00:14 | 41.96232 | -77.79504 | 36266 ft | 485 kts | 283° |
| 2026-04-23 00:15 | 41.97703 | -77.88298 | 36274 ft | 485 kts | 282° |
| 2026-04-23 00:15 | 41.99174 | -77.97137 | 36277 ft | 485 kts | 282° |
| 2026-04-23 00:16 | 42.00640 | -78.05988 | 36278 ft | 485 kts | 282° |
| 2026-04-23 00:16 | 42.02099 | -78.14841 | 36277 ft | 485 kts | 282° |
| 2026-04-23 00:17 | 42.03552 | -78.23709 | 36278 ft | 485 kts | 282° |
| 2026-04-23 00:17 | 42.04991 | -78.32527 | 36278 ft | 485 kts | 282° |
| 2026-04-23 00:18 | 42.06430 | -78.41399 | 36278 ft | 485 kts | 282° |
| 2026-04-23 00:18 | 42.07874 | -78.50346 | 36278 ft | 485 kts | 282° |
| 2026-04-23 00:19 | 42.09300 | -78.59224 | 36274 ft | 485 kts | 282° |
| 2026-04-23 00:19 | 42.10719 | -78.68110 | 36275 ft | 485 kts | 282° |
| 2026-04-23 00:20 | 42.12132 | -78.77004 | 36273 ft | 485 kts | 282° |
| 2026-04-23 00:20 | 42.13530 | -78.85847 | 36263 ft | 485 kts | 282° |
| 2026-04-23 00:21 | 42.14929 | -78.94743 | 36267 ft | 485 kts | 282° |
| 2026-04-23 00:21 | 42.16323 | -79.03660 | 36256 ft | 485 kts | 282° |
| 2026-04-23 00:22 | 42.17709 | -79.12569 | 36247 ft | 486 kts | 282° |
| 2026-04-23 00:22 | 42.19079 | -79.21432 | 36246 ft | 486 kts | 282° |
| 2026-04-23 00:23 | 42.20453 | -79.30364 | 36213 ft | 486 kts | 282° |
| 2026-04-23 00:23 | 42.21819 | -79.39294 | 36213 ft | 486 kts | 282° |
| 2026-04-23 00:24 | 42.23176 | -79.48219 | 36190 ft | 485 kts | 282° |
| 2026-04-23 00:24 | 42.24526 | -79.57155 | 36153 ft | 484 kts | 282° |
| 2026-04-23 00:25 | 42.25865 | -79.66050 | 36140 ft | 483 kts | 282° |
| 2026-04-23 00:25 | 42.27196 | -79.74936 | 36068 ft | 480 kts | 282° |
| 2026-04-23 00:26 | 42.28504 | -79.83727 | 36059 ft | 475 kts | 282° |
| 2026-04-23 00:26 | 42.29790 | -79.92420 | 36068 ft | 471 kts | 282° |
| 2026-04-23 00:27 | 42.31065 | -80.01074 | 36043 ft | 468 kts | 282° |
| 2026-04-23 00:27 | 42.32315 | -80.09618 | 36040 ft | 465 kts | 282° |
| 2026-04-23 00:28 | 42.33560 | -80.18177 | 36044 ft | 464 kts | 282° |
| 2026-04-23 00:28 | 42.34800 | -80.26753 | 36055 ft | 464 kts | 282° |
| 2026-04-23 00:29 | 42.36035 | -80.35341 | 36075 ft | 466 kts | 282° |
| 2026-04-23 00:29 | 42.37274 | -80.43970 | 36047 ft | 466 kts | 281° |
| 2026-04-23 00:30 | 42.38498 | -80.52556 | 36029 ft | 464 kts | 281° |
| 2026-04-23 00:30 | 42.39702 | -80.61070 | 36032 ft | 462 kts | 281° |
| 2026-04-23 00:31 | 42.40903 | -80.69592 | 36021 ft | 460 kts | 281° |
| 2026-04-23 00:31 | 42.42094 | -80.78108 | 36020 ft | 459 kts | 281° |
| 2026-04-23 00:32 | 42.43274 | -80.86599 | 36029 ft | 458 kts | 281° |
| 2026-04-23 00:32 | 42.44448 | -80.95110 | 36061 ft | 461 kts | 281° |
| 2026-04-23 00:33 | 42.45619 | -81.03618 | 36059 ft | 463 kts | 281° |
| 2026-04-23 00:33 | 42.46803 | -81.12273 | 36055 ft | 465 kts | 281° |
| 2026-04-23 00:34 | 42.47972 | -81.20861 | 36067 ft | 468 kts | 281° |
| 2026-04-23 00:34 | 42.49154 | -81.29594 | 36059 ft | 471 kts | 281° |
| 2026-04-23 00:35 | 42.50335 | -81.38366 | 36059 ft | 474 kts | 281° |
| 2026-04-23 00:35 | 42.51513 | -81.47172 | 36057 ft | 476 kts | 281° |
| 2026-04-23 00:36 | 42.52681 | -81.55971 | 36044 ft | 478 kts | 281° |
| 2026-04-23 00:36 | 42.53856 | -81.64859 | 36047 ft | 480 kts | 280° |
| 2026-04-23 00:37 | 42.55024 | -81.73767 | 36054 ft | 481 kts | 280° |
| 2026-04-23 00:37 | 42.56188 | -81.82716 | 36048 ft | 481 kts | 281° |
| 2026-04-23 00:38 | 42.57346 | -81.91679 | 36043 ft | 481 kts | 280° |
| 2026-04-23 00:38 | 42.58496 | -82.00617 | 36034 ft | 481 kts | 280° |
| 2026-04-23 00:39 | 42.59640 | -82.09572 | 36047 ft | 481 kts | 281° |
| 2026-04-23 00:39 | 42.60776 | -82.18519 | 36047 ft | 480 kts | 280° |
| 2026-04-23 00:40 | 42.61906 | -82.27473 | 36046 ft | 480 kts | 280° |
| 2026-04-23 00:40 | 42.63026 | -82.36409 | 36060 ft | 480 kts | 280° |
| 2026-04-23 00:41 | 42.64138 | -82.45339 | 36050 ft | 479 kts | 280° |
| 2026-04-23 00:41 | 42.65236 | -82.54204 | 36077 ft | 479 kts | 280° |
| 2026-04-23 00:42 | 42.66337 | -82.63146 | 36120 ft | 480 kts | 279° |
| 2026-04-23 00:42 | 42.67430 | -82.72096 | 36130 ft | 481 kts | 279° |
| 2026-04-23 00:43 | 42.68519 | -82.81074 | 36138 ft | 482 kts | 279° |
| 2026-04-23 00:43 | 42.69601 | -82.90066 | 36144 ft | 483 kts | 279° |
| 2026-04-23 00:44 | 42.70679 | -82.99084 | 36146 ft | 483 kts | 279° |
| 2026-04-23 00:44 | 42.71751 | -83.08115 | 36143 ft | 484 kts | 279° |
| 2026-04-23 00:45 | 42.72819 | -83.17178 | 36142 ft | 485 kts | 279° |
| 2026-04-23 00:45 | 42.73880 | -83.26241 | 36139 ft | 485 kts | 279° |
| 2026-04-23 00:46 | 42.74937 | -83.35336 | 35982 ft | 489 kts | 279° |
| 2026-04-23 00:46 | 42.75468 | -83.39929 | 35735 ft | 494 kts | 279° |
| 2026-04-23 00:46 | 42.75995 | -83.44501 | 35489 ft | 496 kts | 279° |
| 2026-04-23 00:46 | 42.76529 | -83.49152 | 35186 ft | 497 kts | 279° |
| 2026-04-23 00:47 | 42.77062 | -83.53817 | 34822 ft | 498 kts | 279° |
| 2026-04-23 00:47 | 42.77592 | -83.58469 | 34450 ft | 498 kts | 279° |
| 2026-04-23 00:47 | 42.78120 | -83.63115 | 34077 ft | 498 kts | 278° |
| 2026-04-23 00:47 | 42.78648 | -83.67779 | 33701 ft | 498 kts | 278° |
| 2026-04-23 00:48 | 42.79172 | -83.72435 | 33391 ft | 497 kts | 278° |
| 2026-04-23 00:48 | 42.79695 | -83.77096 | 33131 ft | 497 kts | 278° |
| 2026-04-23 00:48 | 42.80217 | -83.81764 | 32879 ft | 498 kts | 278° |
| 2026-04-23 00:48 | 42.80736 | -83.86421 | 32658 ft | 499 kts | 278° |
| 2026-04-23 00:49 | 42.81245 | -83.91013 | 32528 ft | 498 kts | 278° |
| 2026-04-23 00:49 | 42.82280 | -84.00400 | 32452 ft | 496 kts | 278° |
| 2026-04-23 00:50 | 42.83299 | -84.09711 | 32402 ft | 497 kts | 278° |
| 2026-04-23 00:50 | 42.84139 | -84.17453 | 32360 ft | 497 kts | 278° |
| 2026-04-23 00:51 | 42.85143 | -84.26769 | 32311 ft | 497 kts | 278° |
| 2026-04-23 00:51 | 42.86136 | -84.36064 | 32259 ft | 488 kts | 278° |
| 2026-04-23 00:51 | 42.86770 | -84.42035 | 32220 ft | 474 kts | 278° |
| 2026-04-23 00:52 | 42.87237 | -84.46470 | 32193 ft | 469 kts | 278° |
| 2026-04-23 00:52 | 42.87952 | -84.53750 | 32140 ft | 463 kts | 275° |
| 2026-04-23 00:53 | 42.87934 | -84.62482 | 32130 ft | 459 kts | 266° |
| 2026-04-23 00:53 | 42.87180 | -84.71098 | 32129 ft | 457 kts | 261° |
| 2026-04-23 00:54 | 42.86089 | -84.79628 | 32129 ft | 456 kts | 259° |
| 2026-04-23 00:54 | 42.84893 | -84.88111 | 32127 ft | 455 kts | 259° |
| 2026-04-23 00:55 | 42.83878 | -84.96565 | 32125 ft | 455 kts | 261° |
| 2026-04-23 00:55 | 42.83001 | -85.05107 | 32124 ft | 455 kts | 262° |
| 2026-04-23 00:56 | 42.82181 | -85.13647 | 32117 ft | 455 kts | 263° |
| 2026-04-23 00:56 | 42.81775 | -85.17936 | 31939 ft | 458 kts | 263° |
| 2026-04-23 00:56 | 42.81366 | -85.22251 | 31645 ft | 459 kts | 263° |
| 2026-04-23 00:56 | 42.80955 | -85.26566 | 31345 ft | 458 kts | 262° |
| 2026-04-23 00:57 | 42.80542 | -85.30862 | 31045 ft | 458 kts | 262° |
| 2026-04-23 00:57 | 42.80121 | -85.35196 | 30746 ft | 466 kts | 262° |
| 2026-04-23 00:57 | 42.79688 | -85.39610 | 30450 ft | 476 kts | 262° |
| 2026-04-23 00:57 | 42.79240 | -85.44119 | 30153 ft | 485 kts | 262° |
| 2026-04-23 00:58 | 42.78688 | -85.48690 | 29855 ft | 490 kts | 259° |
| 2026-04-23 00:58 | 42.78003 | -85.53243 | 29556 ft | 493 kts | 257° |
| 2026-04-23 00:58 | 42.77207 | -85.57794 | 29257 ft | 495 kts | 256° |
| 2026-04-23 00:58 | 42.76321 | -85.62329 | 28958 ft | 497 kts | 255° |
| 2026-04-23 00:59 | 42.75362 | -85.66855 | 28659 ft | 499 kts | 253° |
| 2026-04-23 00:59 | 42.74412 | -85.71412 | 28359 ft | 500 kts | 254° |
| 2026-04-23 00:59 | 42.73499 | -85.75987 | 28059 ft | 501 kts | 255° |
| 2026-04-23 00:59 | 42.72614 | -85.80570 | 27760 ft | 503 kts | 255° |
| 2026-04-23 01:00 | 42.71742 | -85.85191 | 27460 ft | 504 kts | 256° |
| 2026-04-23 01:00 | 42.70885 | -85.89804 | 27161 ft | 504 kts | 256° |
| 2026-04-23 01:00 | 42.70044 | -85.94375 | 26864 ft | 505 kts | 256° |
| 2026-04-23 01:00 | 42.69209 | -85.98942 | 26320 ft | 490 kts | 256° |
| 2026-04-23 01:01 | 42.68382 | -86.03474 | 25866 ft | 484 kts | 256° |
| 2026-04-23 01:01 | 42.67566 | -86.07951 | 25373 ft | 492 kts | 256° |
| 2026-04-23 01:01 | 42.66737 | -86.12491 | 24832 ft | 493 kts | 256° |
| 2026-04-23 01:01 | 42.65914 | -86.16993 | 24283 ft | 489 kts | 256° |
| 2026-04-23 01:02 | 42.65095 | -86.21462 | 23733 ft | 486 kts | 256° |
| 2026-04-23 01:02 | 42.64289 | -86.25849 | 23190 ft | 483 kts | 256° |
| 2026-04-23 01:02 | 42.63467 | -86.30310 | 22632 ft | 480 kts | 256° |
| 2026-04-23 01:02 | 42.62656 | -86.34693 | 22081 ft | 476 kts | 256° |
| 2026-04-23 01:03 | 42.61861 | -86.38977 | 21537 ft | 472 kts | 256° |
| 2026-04-23 01:03 | 42.61059 | -86.43288 | 20986 ft | 468 kts | 256° |
| 2026-04-23 01:03 | 42.60260 | -86.47569 | 20433 ft | 465 kts | 256° |
| 2026-04-23 01:03 | 42.59470 | -86.51790 | 19884 ft | 461 kts | 256° |
| 2026-04-23 01:04 | 42.58681 | -86.55991 | 19333 ft | 457 kts | 256° |
| 2026-04-23 01:04 | 42.57898 | -86.60152 | 18782 ft | 453 kts | 256° |
| 2026-04-23 01:04 | 42.56337 | -86.68299 | 17678 ft | 438 kts | 255° |
| 2026-04-23 01:05 | 42.55482 | -86.72239 | 17126 ft | 433 kts | 253° |
| 2026-04-23 01:05 | 42.54572 | -86.76094 | 16575 ft | 424 kts | 252° |
| 2026-04-23 01:05 | 42.53642 | -86.79816 | 16022 ft | 410 kts | 251° |
| 2026-04-23 01:05 | 42.52707 | -86.83417 | 15468 ft | 398 kts | 250° |
| 2026-04-23 01:06 | 42.51790 | -86.86856 | 14923 ft | 390 kts | 250° |
| 2026-04-23 01:06 | 42.50851 | -86.90326 | 14364 ft | 384 kts | 250° |
| 2026-04-23 01:06 | 42.49930 | -86.93702 | 13812 ft | 379 kts | 250° |
| 2026-04-23 01:06 | 42.49021 | -86.97026 | 13262 ft | 375 kts | 250° |
| 2026-04-23 01:07 | 42.48122 | -87.00314 | 12712 ft | 371 kts | 250° |
| 2026-04-23 01:07 | 42.47233 | -87.03575 | 12323 ft | 365 kts | 250° |
| 2026-04-23 01:07 | 42.46344 | -87.06830 | 12102 ft | 375 kts | 250° |
| 2026-04-23 01:07 | 42.45412 | -87.10198 | 11881 ft | 385 kts | 249° |
| 2026-04-23 01:08 | 42.44472 | -87.13551 | 11659 ft | 385 kts | 249° |
| 2026-04-23 01:08 | 42.43513 | -87.16933 | 11433 ft | 384 kts | 249° |
| 2026-04-23 01:08 | 42.42554 | -87.20292 | 11222 ft | 382 kts | 249° |
| 2026-04-23 01:08 | 42.41591 | -87.23639 | 11083 ft | 380 kts | 249° |
| 2026-04-23 01:09 | 42.40632 | -87.26958 | 11013 ft | 378 kts | 249° |
| 2026-04-23 01:09 | 42.39700 | -87.30282 | 10996 ft | 377 kts | 249° |
| 2026-04-23 01:09 | 42.38797 | -87.33617 | 10990 ft | 378 kts | 250° |
| 2026-04-23 01:09 | 42.37916 | -87.36962 | 10995 ft | 377 kts | 250° |
| 2026-04-23 01:10 | 42.37052 | -87.40313 | 10998 ft | 378 kts | 251° |
| 2026-04-23 01:10 | 42.36198 | -87.43668 | 11000 ft | 378 kts | 251° |
| 2026-04-23 01:10 | 42.35350 | -87.47034 | 10998 ft | 378 kts | 251° |
| 2026-04-23 01:10 | 42.34587 | -87.49870 | 10987 ft | 378 kts | 247° |
| 2026-04-23 01:11 | 42.33300 | -87.52923 | 11000 ft | 379 kts | 236° |
| 2026-04-23 01:11 | 42.31647 | -87.55702 | 10999 ft | 380 kts | 228° |
| 2026-04-23 01:11 | 42.29769 | -87.58210 | 11001 ft | 380 kts | 223° |
| 2026-04-23 01:11 | 42.27774 | -87.60487 | 11001 ft | 380 kts | 219° |
| 2026-04-23 01:12 | 42.25676 | -87.62644 | 10940 ft | 381 kts | 217° |
| 2026-04-23 01:12 | 42.23528 | -87.64720 | 10611 ft | 369 kts | 215° |
| 2026-04-23 01:12 | 42.21505 | -87.66605 | 10300 ft | 339 kts | 214° |
| 2026-04-23 01:12 | 42.19825 | -87.68676 | 9972 ft | 318 kts | 230° |
| 2026-04-23 01:13 | 42.18640 | -87.71107 | 9693 ft | 307 kts | 239° |
| 2026-04-23 01:13 | 42.17654 | -87.73636 | 9392 ft | 301 kts | 243° |
| 2026-04-23 01:13 | 42.16761 | -87.76165 | 9090 ft | 297 kts | 245° |
| 2026-04-23 01:13 | 42.15948 | -87.78560 | 8802 ft | 294 kts | 245° |
| 2026-04-23 01:14 | 42.15078 | -87.81165 | 8489 ft | 291 kts | 246° |
| 2026-04-23 01:14 | 42.14292 | -87.83538 | 8215 ft | 289 kts | 246° |
| 2026-04-23 01:14 | 42.13481 | -87.85992 | 8085 ft | 284 kts | 246° |
| 2026-04-23 01:14 | 42.12683 | -87.88411 | 8022 ft | 282 kts | 246° |
| 2026-04-23 01:15 | 42.11889 | -87.90824 | 8006 ft | 282 kts | 246° |
| 2026-04-23 01:15 | 42.11093 | -87.93241 | 8003 ft | 281 kts | 246° |
| 2026-04-23 01:15 | 42.10317 | -87.95602 | 7950 ft | 269 kts | 246° |
| 2026-04-23 01:15 | 42.09583 | -87.97839 | 7915 ft | 256 kts | 246° |
| 2026-04-23 01:16 | 42.08876 | -87.99996 | 7884 ft | 248 kts | 246° |
| 2026-04-23 01:16 | 42.08182 | -88.02112 | 7856 ft | 245 kts | 246° |
| 2026-04-23 01:16 | 42.07505 | -88.04180 | 7833 ft | 241 kts | 246° |
| 2026-04-23 01:16 | 42.06822 | -88.06264 | 7649 ft | 243 kts | 246° |
| 2026-04-23 01:17 | 42.06145 | -88.08336 | 7471 ft | 242 kts | 246° |
| 2026-04-23 01:17 | 42.05472 | -88.10388 | 7298 ft | 241 kts | 245° |
| 2026-04-23 01:17 | 42.04852 | -88.12477 | 7093 ft | 240 kts | 254° |
| 2026-04-23 01:17 | 42.04636 | -88.14725 | 6949 ft | 240 kts | 265° |
| 2026-04-23 01:18 | 42.04568 | -88.16940 | 6779 ft | 240 kts | 268° |
| 2026-04-23 01:18 | 42.04536 | -88.19179 | 6603 ft | 238 kts | 269° |
| 2026-04-23 01:18 | 42.04515 | -88.21402 | 6427 ft | 237 kts | 269° |
| 2026-04-23 01:18 | 42.04497 | -88.23616 | 6252 ft | 236 kts | 269° |
| 2026-04-23 01:19 | 42.04472 | -88.25820 | 6074 ft | 235 kts | 267° |
| 2026-04-23 01:19 | 42.03981 | -88.27891 | 5867 ft | 234 kts | 238° |
| 2026-04-23 01:19 | 42.02729 | -88.29225 | 5742 ft | 232 kts | 205° |
| 2026-04-23 01:19 | 42.01153 | -88.29389 | 5641 ft | 230 kts | 171° |
| 2026-04-23 01:20 | 41.99783 | -88.28344 | 5566 ft | 229 kts | 137° |
| 2026-04-23 01:20 | 41.98849 | -88.26613 | 5523 ft | 229 kts | 123° |
| 2026-04-23 01:20 | 41.98035 | -88.24768 | 5150 ft | 227 kts | 120° |
| 2026-04-23 01:20 | 41.97268 | -88.22971 | 4881 ft | 213 kts | 119° |
| 2026-04-23 01:21 | 41.96673 | -88.21229 | 4651 ft | 197 kts | 111° |
| 2026-04-23 01:21 | 41.96362 | -88.19503 | 4384 ft | 185 kts | 100° |
| 2026-04-23 01:21 | 41.96290 | -88.17856 | 4191 ft | 172 kts | 91° |
| 2026-04-23 01:21 | 41.96337 | -88.16279 | 3969 ft | 169 kts | 87° |
| 2026-04-23 01:22 | 41.96416 | -88.14692 | 3751 ft | 167 kts | 86° |
| 2026-04-23 01:22 | 41.96484 | -88.13158 | 3532 ft | 162 kts | 87° |
| 2026-04-23 01:22 | 41.96529 | -88.11647 | 3318 ft | 161 kts | 88° |
| 2026-04-23 01:22 | 41.96553 | -88.10155 | 3124 ft | 161 kts | 89° |
| 2026-04-23 01:23 | 41.96562 | -88.08643 | 2925 ft | 162 kts | 90° |
| 2026-04-23 01:23 | 41.96563 | -88.07130 | 2716 ft | 162 kts | 90° |
| 2026-04-23 01:23 | 41.96562 | -88.05611 | 2501 ft | 162 kts | 90° |
| 2026-04-23 01:23 | 41.96561 | -88.04101 | 2285 ft | 162 kts | 90° |
| 2026-04-23 01:24 | 41.96562 | -88.02585 | 2069 ft | 161 kts | 90° |
| 2026-04-23 01:24 | 41.96563 | -88.01084 | 1855 ft | 161 kts | 90° |
| 2026-04-23 01:24 | 41.96565 | -87.99585 | 1641 ft | 161 kts | 90° |
| 2026-04-23 01:24 | 41.96583 | -87.98084 | 1427 ft | 161 kts | 91° |
| 2026-04-23 01:25 | 41.96585 | -87.96589 | 1212 ft | 159 kts | 91° |
| 2026-04-23 01:25 | 41.96572 | -87.95107 | 988 ft | 158 kts | 91° |
| 2026-04-23 01:25 | 41.96566 | -87.93625 | 782 ft | 157 kts | 90° |
| 2026-04-23 01:25 | 41.96569 | -87.92188 | 678 ft | 135 kts | 90° |
| 2026-04-23 01:26 | 41.96570 | -87.91366 | 678 ft | 55 kts | 90° |
| 2026-04-23 01:26 | 41.96606 | -87.90956 | 678 ft | 38 kts | 72° |
| 2026-04-23 01:26 | 41.96685 | -87.90707 | 678 ft | 24 kts | 63° |
| 2026-04-23 01:26 | 41.96732 | -87.90547 | 678 ft | 13 kts | 78° |
| 2026-04-23 01:27 | 41.96736 | -87.90465 | 678 ft | 4 kts | 89° |
| 2026-04-23 01:27 | 41.96737 | -87.90431 | 678 ft | 7 kts | 89° |
| 2026-04-23 01:27 | 41.96737 | -87.90404 | 678 ft | 0 kts | 89° |
| 2026-04-23 01:27 | 41.96737 | -87.90399 | 678 ft | 5 kts | 89° |
| 2026-04-23 01:28 | 41.96737 | -87.90376 | 678 ft | 0 kts | 89° |
| 2026-04-23 01:28 | 41.96737 | -87.90361 | 678 ft | 12 kts | 89° |
| 2026-04-23 01:28 | 41.96738 | -87.90279 | 678 ft | 4 kts | 89° |
| 2026-04-23 01:28 | 41.96739 | -87.90233 | 678 ft | 10 kts | 89° |
| 2026-04-23 01:29 | 41.96767 | -87.90143 | 678 ft | 8 kts | 36° |
| 2026-04-23 01:29 | 41.96783 | -87.90135 | 678 ft | 0 kts | 360° |
| 2026-04-23 01:29 | 41.96784 | -87.90135 | 678 ft | 0 kts | 178° |
| 2026-04-23 01:29 | 41.96762 | -87.90132 | 678 ft | 9 kts | 165° |
| 2026-04-23 01:30 | 41.96736 | -87.90036 | 678 ft | 12 kts | 82° |
| 2026-04-23 01:30 | 41.96739 | -87.89951 | 678 ft | 6 kts | 89° |
| 2026-04-23 01:30 | 41.96740 | -87.89823 | 678 ft | 18 kts | 90° |
| 2026-04-23 01:30 | 41.96740 | -87.89663 | 678 ft | 18 kts | 90° |
| 2026-04-23 01:31 | 41.96740 | -87.89482 | 678 ft | 21 kts | 90° |
| 2026-04-23 01:31 | 41.96740 | -87.89292 | 678 ft | 16 kts | 90° |
| 2026-04-23 01:31 | 41.96770 | -87.89149 | 678 ft | 16 kts | 64° |
| 2026-04-23 01:31 | 41.96831 | -87.89071 | 678 ft | 11 kts | 13° |
| 2026-04-23 01:32 | 41.96905 | -87.89066 | 678 ft | 11 kts | 0° |
| 2026-04-23 01:32 | 41.96987 | -87.89069 | 678 ft | 13 kts | 359° |
| 2026-04-23 01:32 | 41.97067 | -87.89069 | 678 ft | 11 kts | 360° |
| 2026-04-23 01:32 | 41.97116 | -87.89069 | 678 ft | 7 kts | 360° |
| 2026-04-23 01:33 | 41.97150 | -87.89070 | 678 ft | 5 kts | 359° |
| 2026-04-23 01:33 | 41.97180 | -87.89082 | 678 ft | 5 kts | 324° |
| 2026-04-23 01:33 | 41.97194 | -87.89118 | 678 ft | 5 kts | 274° |
| 2026-04-23 01:33 | 41.97195 | -87.89162 | 678 ft | 5 kts | 271° |
| 2026-04-23 01:34 | 41.97195 | -87.89208 | 678 ft | 5 kts | 270° |
| 2026-04-23 01:34 | 41.97195 | -87.89258 | 678 ft | 5 kts | 270° |
| 2026-04-23 01:34 | 41.97195 | -87.89310 | 678 ft | 6 kts | 270° |
| 2026-04-23 01:34 | 41.97195 | -87.89373 | 678 ft | 9 kts | 270° |
| 2026-04-23 01:35 | 41.97196 | -87.89460 | 678 ft | 9 kts | 273° |
| 2026-04-23 01:35 | 41.97216 | -87.89530 | 678 ft | 9 kts | 311° |
| 2026-04-23 01:35 | 41.97274 | -87.89587 | 678 ft | 12 kts | 323° |
| 2026-04-23 01:35 | 41.97296 | -87.89668 | 678 ft | 10 kts | 246° |
| 2026-04-23 01:36 | 41.97289 | -87.89744 | 678 ft | 6 kts | 317° |
| 2026-04-23 01:36 | 41.97330 | -87.89743 | 678 ft | 5 kts | 18° |
| 2026-04-23 01:36 | 41.97345 | -87.89737 | 678 ft | 1 kts | 18° |
| 2026-04-23 01:36 | 41.97346 | -87.89736 | 678 ft | 0 kts | 18° |
| 2026-04-23 01:37 | 41.97360 | -87.89730 | 678 ft | 0 kts | 18° |
| 2026-04-23 01:37 | 41.97371 | -87.89725 | 678 ft | 3 kts | 19° |
| 2026-04-23 01:37 | 41.97362 | -87.89729 | 678 ft | 7 kts | 19° |
| 2026-04-23 01:38 | 41.97358 | -87.89731 | 678 ft | 0 kts | 19° |